Time;durP1;ratioP1;P1;durP2;ratioP2;P2;SDS_P1;SDS_P2;PMS_P1;PMS_P2;Temp;Humidity;BMP_temperature;BMP_pressure;BME280_temperature;BME280_humidity;BME280_pressure;Samples;Min_cycle;Max_cycle;Signal;HPM_P1;HPM_P2
2024/04/09 00:01:20;;;;;;;22.85;13.48;;;14.30;99.90;;;;;;5397395;26;20004;-81
2024/04/09 00:03:47;;;;;;;23.88;13.00;;;14.30;99.90;;;;;;5398512;26;20003;-81
2024/04/09 00:06:14;;;;;;;21.63;13.02;;;14.30;99.90;;;;;;5399253;26;20011;-82
2024/04/09 00:08:44;;;;;;;21.13;13.23;;;14.40;99.90;;;;;;5397855;26;20011;-81
2024/04/09 00:11:21;;;;;;;18.52;13.60;;;14.40;99.90;;;;;;5396013;26;20011;-81
2024/04/09 00:13:53;;;;;;;19.48;13.55;;;14.40;99.90;;;;;;5401339;26;20000;-82
2024/04/09 00:16:25;;;;;;;24.63;13.55;;;14.40;99.90;;;;;;5402148;26;20001;-80
2024/04/09 00:18:55;;;;;;;17.65;12.65;;;14.40;99.90;;;;;;5403401;26;19992;-80
2024/04/09 00:21:23;;;;;;;18.70;13.13;;;14.40;99.90;;;;;;5401896;26;20004;-81
2024/04/09 00:23:51;;;;;;;16.88;13.82;;;14.40;99.90;;;;;;5400742;26;19999;-80
2024/04/09 00:26:18;;;;;;;19.70;13.32;;;14.40;99.90;;;;;;5401812;26;19996;-80
2024/04/09 00:28:47;;;;;;;20.65;13.05;;;14.40;99.90;;;;;;5401603;26;19996;-81
2024/04/09 00:31:16;;;;;;;20.95;13.38;;;14.40;99.90;;;;;;5400964;26;20011;-81
2024/04/09 00:33:43;;;;;;;18.58;12.98;;;14.40;99.90;;;;;;5400587;26;19996;-82
2024/04/09 00:36:12;;;;;;;22.15;13.70;;;14.50;99.90;;;;;;5402094;26;20031;-80
2024/04/09 00:38:42;;;;;;;17.70;12.82;;;14.50;99.90;;;;;;5400599;26;20011;-82
2024/04/09 00:41:10;;;;;;;19.35;12.98;;;14.50;99.90;;;;;;5400524;26;20007;-81
2024/04/09 00:43:38;;;;;;;21.70;13.95;;;14.40;99.90;;;;;;5401234;26;19992;-82
2024/04/09 00:46:05;;;;;;;22.98;14.25;;;14.40;99.90;;;;;;5403504;26;20006;-82
2024/04/09 00:48:34;;;;;;;20.98;15.18;;;14.40;99.90;;;;;;5402942;26;19996;-80
2024/04/09 00:51:03;;;;;;;21.50;15.07;;;14.40;99.90;;;;;;5401151;26;19996;-80
2024/04/09 00:53:32;;;;;;;20.70;14.35;;;14.30;99.90;;;;;;5401088;26;19992;-80
2024/04/09 00:56:01;;;;;;;22.27;14.70;;;14.30;99.90;;;;;;5401551;26;20372;-82
2024/04/09 00:58:28;;;;;;;18.75;13.43;;;14.30;99.90;;;;;;5399100;26;20008;-80
2024/04/09 01:00:58;;;;;;;18.73;14.40;;;14.30;99.90;;;;;;5400647;26;20003;-81
2024/04/09 01:03:26;;;;;;;23.90;14.45;;;14.30;99.90;;;;;;5399985;26;19996;-82
2024/04/09 01:05:53;;;;;;;20.17;13.95;;;14.30;99.90;;;;;;5400688;26;20009;-81
2024/04/09 01:08:20;;;;;;;23.98;14.73;;;14.30;99.90;;;;;;5398748;26;20003;-81
2024/04/09 01:10:48;;;;;;;29.35;16.38;;;14.30;99.90;;;;;;5399643;26;19992;-81
2024/04/09 01:13:14;;;;;;;24.58;15.10;;;14.20;99.90;;;;;;5400033;26;19996;-79
2024/04/09 01:15:42;;;;;;;20.25;15.45;;;14.30;99.90;;;;;;5399357;26;20001;-81
2024/04/09 01:18:09;;;;;;;21.08;14.10;;;14.30;99.90;;;;;;5399853;26;20003;-81
2024/04/09 01:20:35;;;;;;;19.05;14.82;;;14.30;99.90;;;;;;5398936;26;20011;-82
2024/04/09 01:23:02;;;;;;;25.60;17.23;;;14.40;99.90;;;;;;5397547;26;20456;-82
2024/04/09 01:25:30;;;;;;;21.13;14.63;;;14.40;99.90;;;;;;5398667;26;20476;-81
2024/04/09 01:27:57;;;;;;;22.55;16.58;;;14.40;99.90;;;;;;5399187;26;20383;-80
2024/04/09 01:30:24;;;;;;;23.73;16.73;;;14.40;99.90;;;;;;5398238;26;20003;-80
2024/04/09 01:32:52;;;;;;;25.92;15.90;;;14.40;99.90;;;;;;5397850;26;19992;-83
2024/04/09 01:35:19;;;;;;;22.77;16.63;;;14.40;99.90;;;;;;5398257;26;20463;-80
2024/04/09 01:37:46;;;;;;;24.30;16.50;;;14.40;99.90;;;;;;5398598;26;20003;-81
2024/04/09 01:40:13;;;;;;;22.30;16.90;;;14.40;99.90;;;;;;5397775;26;19992;-81
2024/04/09 01:42:40;;;;;;;22.42;15.70;;;14.40;99.90;;;;;;5398496;26;20376;-81
2024/04/09 01:45:07;;;;;;;22.52;15.68;;;14.40;99.90;;;;;;5397807;26;20464;-81
2024/04/09 01:47:34;;;;;;;23.17;16.13;;;14.40;99.90;;;;;;5397736;26;20007;-82
2024/04/09 01:50:03;;;;;;;21.40;15.32;;;14.40;99.90;;;;;;5397201;26;20043;-80
2024/04/09 01:52:31;;;;;;;20.42;14.93;;;14.40;99.90;;;;;;5395185;26;20456;-81
2024/04/09 01:54:58;;;;;;;21.63;15.30;;;14.30;99.90;;;;;;5396541;26;20007;-81
2024/04/09 01:57:29;;;;;;;23.35;15.90;;;14.40;99.90;;;;;;5397074;26;19996;-80
2024/04/09 01:59:56;;;;;;;19.02;16.23;;;14.30;99.90;;;;;;5396713;26;20349;-81
2024/04/09 02:02:23;;;;;;;22.95;15.27;;;14.30;99.90;;;;;;5396471;26;20003;-81
2024/04/09 02:04:50;;;;;;;20.40;14.98;;;14.30;99.90;;;;;;5394031;26;20017;-80
2024/04/09 02:07:17;;;;;;;21.85;17.25;;;14.30;99.90;;;;;;5396422;26;20004;-81
2024/04/09 02:09:49;;;;;;;22.02;16.80;;;14.30;99.90;;;;;;5396999;26;20008;-81
2024/04/09 02:12:16;;;;;;;21.50;16.10;;;14.30;99.90;;;;;;5395769;26;20448;-81
2024/04/09 02:14:42;;;;;;;21.50;16.60;;;14.20;99.90;;;;;;5396024;26;20011;-80
2024/04/09 02:17:11;;;;;;;20.60;15.35;;;14.30;99.90;;;;;;5396552;26;19992;-79
2024/04/09 02:19:38;;;;;;;22.77;16.60;;;14.30;99.90;;;;;;5395848;26;20000;-80
2024/04/09 02:22:05;;;;;;;18.60;15.45;;;14.20;99.90;;;;;;5396169;26;19999;-80
2024/04/09 02:24:31;;;;;;;25.30;16.45;;;14.30;99.90;;;;;;5394499;26;20463;-81
2024/04/09 02:26:58;;;;;;;25.27;17.15;;;14.30;99.90;;;;;;5393548;26;20024;-80
2024/04/09 02:29:25;;;;;;;26.35;17.50;;;14.30;99.90;;;;;;5395451;26;20375;-81
2024/04/09 02:31:52;;;;;;;27.30;18.05;;;14.30;99.90;;;;;;5395635;26;20007;-81
2024/04/09 02:34:24;;;;;;;24.40;16.85;;;14.30;99.90;;;;;;5395136;26;20007;-82
2024/04/09 02:36:51;;;;;;;23.55;17.67;;;14.20;99.90;;;;;;5395375;26;20392;-82
2024/04/09 02:39:18;;;;;;;23.83;17.30;;;14.20;99.90;;;;;;5396394;26;20000;-81
2024/04/09 02:41:45;;;;;;;26.17;17.20;;;14.30;99.90;;;;;;5396170;26;19993;-81
2024/04/09 02:44:12;;;;;;;26.35;18.65;;;14.20;99.90;;;;;;5395886;26;20000;-80
2024/04/09 02:46:39;;;;;;;21.50;16.85;;;14.30;99.90;;;;;;5396694;26;20045;-82
2024/04/09 02:49:06;;;;;;;24.13;17.65;;;14.30;99.90;;;;;;5397342;26;20007;-81
2024/04/09 02:51:35;;;;;;;23.67;19.60;;;14.30;99.90;;;;;;5398848;26;19992;-83
2024/04/09 02:54:02;;;;;;;31.33;19.55;;;14.20;99.90;;;;;;5396251;26;20474;-81
2024/04/09 02:56:28;;;;;;;23.92;17.98;;;14.30;99.90;;;;;;5398879;26;20000;-81
2024/04/09 02:58:55;;;;;;;21.05;16.63;;;14.20;99.90;;;;;;5398092;26;20007;-83
2024/04/09 03:01:22;;;;;;;24.00;16.63;;;14.20;99.90;;;;;;5401994;26;19992;-82
2024/04/09 03:03:49;;;;;;;22.45;16.75;;;14.20;99.90;;;;;;5401974;26;19997;-83
2024/04/09 03:06:16;;;;;;;21.23;16.77;;;14.20;99.90;;;;;;5401505;26;19988;-83
2024/04/09 03:08:44;;;;;;;22.35;16.25;;;14.10;99.90;;;;;;5401657;26;19988;-82
2024/04/09 03:11:18;;;;;;;19.38;14.98;;;14.10;99.90;;;;;;5402051;26;20000;-82
2024/04/09 03:13:49;;;;;;;21.05;16.35;;;14.10;99.90;;;;;;5401863;26;19996;-84
2024/04/09 03:16:19;;;;;;;21.60;17.00;;;14.00;99.90;;;;;;5401680;26;19996;-82
2024/04/09 03:18:47;;;;;;;24.67;16.42;;;14.00;99.90;;;;;;5401855;26;20000;-82
2024/04/09 03:21:14;;;;;;;25.58;17.00;;;14.00;99.90;;;;;;5401526;26;20016;-81
2024/04/09 03:23:41;;;;;;;25.25;16.00;;;14.00;99.90;;;;;;5401541;26;19995;-81
2024/04/09 03:26:10;;;;;;;18.95;16.13;;;14.00;99.90;;;;;;5401582;26;19988;-81
2024/04/09 03:28:38;;;;;;;19.73;15.93;;;14.00;99.90;;;;;;5398922;26;20011;-80
2024/04/09 03:31:05;;;;;;;19.25;15.60;;;13.90;99.90;;;;;;5399872;26;20007;-82
2024/04/09 03:33:33;;;;;;;19.15;14.85;;;13.90;99.90;;;;;;5398666;26;19988;-82
2024/04/09 03:36:02;;;;;;;19.67;14.90;;;14.00;99.90;;;;;;5398538;26;20000;-81
2024/04/09 03:38:29;;;;;;;19.70;14.77;;;13.90;99.90;;;;;;5398229;26;20000;-81
2024/04/09 03:41:01;;;;;;;19.45;15.80;;;13.90;99.90;;;;;;5398607;26;20072;-82
2024/04/09 03:43:28;;;;;;;23.25;15.55;;;13.90;99.90;;;;;;5397293;26;20369;-81
2024/04/09 03:46:09;;;;;;;22.48;14.40;;;13.90;99.90;;;;;;5397130;26;20004;-80
2024/04/09 03:48:42;;;;;;;19.13;14.13;;;13.90;99.90;;;;;;5397157;26;20011;-82
2024/04/09 03:51:14;;;;;;;20.50;14.93;;;13.90;99.90;;;;;;5397722;26;19989;-80
2024/04/09 03:53:44;;;;;;;19.70;14.90;;;13.90;99.90;;;;;;5395768;26;19999;-81
2024/04/09 03:56:11;;;;;;;21.42;14.88;;;13.90;99.90;;;;;;5397203;26;20000;-83
2024/04/09 03:58:45;;;;;;;21.17;14.52;;;13.90;99.90;;;;;;5397907;26;20012;-80
2024/04/09 04:01:12;;;;;;;18.58;14.10;;;13.90;99.90;;;;;;5397455;26;20007;-81
2024/04/09 04:03:45;;;;;;;18.88;14.10;;;13.80;99.90;;;;;;5395896;26;20380;-81
2024/04/09 04:06:12;;;;;;;;;;;13.80;99.90;;;;;;5397334;26;20004;-81
2024/04/09 04:08:41;;;;;;;21.77;13.10;;;13.80;99.90;;;;;;5396999;26;19933;-80
2024/04/09 04:11:12;;;;;;;21.30;13.88;;;13.80;99.90;;;;;;5397723;26;19997;-80
2024/04/09 04:13:39;;;;;;;18.02;13.48;;;13.80;99.90;;;;;;5397260;26;20474;-81
2024/04/09 04:16:13;;;;;;;17.77;14.32;;;13.80;99.90;;;;;;5396930;26;19996;-81
2024/04/09 04:18:44;;;;;;;21.95;13.82;;;13.90;99.90;;;;;;5397000;26;20005;-80
2024/04/09 04:21:13;;;;;;;19.23;12.93;;;13.90;99.90;;;;;;5397999;26;20011;-81
2024/04/09 04:23:44;;;;;;;18.10;13.50;;;14.00;99.90;;;;;;5398066;26;19993;-80
2024/04/09 04:26:23;;;;;;;20.80;13.57;;;14.00;99.90;;;;;;5398286;26;20007;-81
2024/04/09 04:28:51;;;;;;;19.75;13.02;;;14.00;99.90;;;;;;5397903;26;20007;-81
2024/04/09 04:31:20;;;;;;;22.30;13.23;;;13.90;99.90;;;;;;5396714;26;20007;-80
2024/04/09 04:33:49;;;;;;;21.02;13.25;;;13.90;99.90;;;;;;5395406;26;20011;-80
2024/04/09 04:36:18;;;;;;;16.92;10.30;;;13.90;99.90;;;;;;5399017;26;20000;-80
2024/04/09 04:38:47;;;;;;;13.13;8.52;;;13.80;99.90;;;;;;5398897;26;20007;-82
2024/04/09 04:41:14;;;;;;;10.43;8.00;;;13.90;99.90;;;;;;5399160;26;19993;-82
2024/04/09 04:43:42;;;;;;;12.77;7.90;;;13.90;99.90;;;;;;5398952;26;20008;-80
2024/04/09 04:46:09;;;;;;;10.65;7.95;;;13.90;99.90;;;;;;5398888;26;19997;-81
2024/04/09 04:48:37;;;;;;;11.20;8.13;;;13.90;99.90;;;;;;5399634;26;19993;-81
2024/04/09 04:51:04;;;;;;;11.50;7.57;;;13.90;99.90;;;;;;5400774;26;20003;-81
2024/04/09 04:53:31;;;;;;;11.90;8.10;;;13.90;99.90;;;;;;5399003;26;20007;-81
2024/04/09 04:55:58;;;;;;;12.13;7.78;;;13.90;99.90;;;;;;5397243;26;20416;-81
2024/04/09 04:58:25;;;;;;;10.98;7.30;;;14.00;99.90;;;;;;5394062;26;20000;-80
2024/04/09 05:00:52;;;;;;;12.98;8.10;;;14.00;99.90;;;;;;5397289;26;20009;-81
2024/04/09 05:03:19;;;;;;;13.57;8.10;;;14.00;99.90;;;;;;5397500;26;20003;-81
2024/04/09 05:05:47;;;;;;;12.55;8.48;;;14.00;99.90;;;;;;5397272;26;20003;-80
2024/04/09 05:08:14;;;;;;;9.13;8.13;;;14.00;99.90;;;;;;5396342;26;20009;-79
2024/04/09 05:10:41;;;;;;;10.70;8.48;;;14.00;99.90;;;;;;5395888;26;20000;-80
2024/04/09 05:13:08;;;;;;;14.27;9.77;;;14.00;99.90;;;;;;5393103;26;20012;-81
2024/04/09 05:15:35;;;;;;;12.25;8.45;;;14.00;99.90;;;;;;5395102;26;20000;-80
2024/04/09 05:18:02;;;;;;;11.48;8.77;;;14.00;99.90;;;;;;5395320;26;20471;-81
2024/04/09 05:20:29;;;;;;;14.70;9.70;;;14.00;99.90;;;;;;5394821;26;20007;-80
2024/04/09 05:22:57;;;;;;;14.80;8.70;;;14.00;99.90;;;;;;5394331;26;20011;-84
2024/04/09 05:25:27;;;;;;;11.50;8.85;;;14.00;99.90;;;;;;5391309;26;20012;-81
2024/04/09 05:27:54;;;;;;;12.90;8.88;;;14.00;99.90;;;;;;5394460;26;20017;-80
2024/04/09 05:30:22;;;;;;;13.13;8.73;;;14.00;99.90;;;;;;5393900;26;20008;-79
2024/04/09 05:32:49;;;;;;;18.48;10.23;;;14.00;99.90;;;;;;5393849;26;20000;-80
2024/04/09 05:35:18;;;;;;;16.88;10.68;;;14.00;99.90;;;;;;5397071;26;20003;-79
2024/04/09 05:37:46;;;;;;;15.00;10.40;;;14.00;99.90;;;;;;5392982;26;20375;-80
2024/04/09 05:40:13;;;;;;;14.63;10.00;;;13.90;99.90;;;;;;5390841;26;20020;-80
2024/04/09 05:42:46;;;;;;;14.45;9.90;;;13.90;99.90;;;;;;5394041;26;20456;-81
2024/04/09 05:45:14;;;;;;;13.60;9.00;;;13.90;99.90;;;;;;5393024;26;20024;-79
2024/04/09 05:47:42;;;;;;;11.40;7.97;;;13.90;99.90;;;;;;5393141;26;20013;-79
2024/04/09 05:50:09;;;;;;;10.07;6.15;;;13.90;99.90;;;;;;5393825;26;20471;-80
2024/04/09 05:52:36;;;;;;;8.95;4.80;;;13.80;99.90;;;;;;5391874;26;20024;-81
2024/04/09 05:55:05;;;;;;;8.10;3.85;;;13.80;99.90;;;;;;5444269;21;20046;-75
2024/04/09 05:57:36;;;;;;;6.63;2.58;;;13.70;99.90;;;;;;5452588;26;20026;-76
2024/04/09 06:00:13;;;;;;;5.50;2.17;;;13.60;99.90;;;;;;5452154;26;20031;-76
2024/04/09 06:02:45;;;;;;;5.60;2.80;;;13.50;99.90;;;;;;5452426;26;20023;-76
2024/04/09 06:05:12;;;;;;;4.72;2.50;;;13.50;99.90;;;;;;5451762;26;20038;-76
2024/04/09 06:07:39;;;;;;;8.70;2.53;;;13.40;99.90;;;;;;5452395;26;20464;-76
2024/04/09 06:10:06;;;;;;;5.68;1.70;;;13.40;99.90;;;;;;5451428;26;20491;-76
2024/04/09 06:12:33;;;;;;;6.55;1.60;;;13.40;99.90;;;;;;5452323;26;20023;-75
2024/04/09 06:14:59;;;;;;;4.95;1.67;;;13.40;99.90;;;;;;5451400;26;20032;-75
2024/04/09 06:17:26;;;;;;;5.35;1.50;;;13.30;99.90;;;;;;5450229;26;20031;-76
2024/04/09 06:19:57;;;;;;;7.72;2.20;;;13.30;99.90;;;;;;5452093;26;20015;-75
2024/04/09 06:22:24;;;;;;;5.75;1.67;;;13.30;99.90;;;;;;5452337;26;20385;-75
2024/04/09 06:24:51;;;;;;;4.55;1.40;;;13.30;99.90;;;;;;5451600;26;20019;-76
2024/04/09 06:27:18;;;;;;;5.68;1.80;;;13.20;99.90;;;;;;5452392;26;20501;-76
2024/04/09 06:29:45;;;;;;;7.50;2.20;;;13.20;99.90;;;;;;5434296;26;20028;-76
2024/04/09 06:32:11;;;;;;;6.20;3.13;;;13.20;99.90;;;;;;5416088;26;20373;-76
2024/04/09 06:34:38;;;;;;;9.20;2.75;;;13.20;99.90;;;;;;5415163;26;20019;-76
2024/04/09 06:37:05;;;;;;;6.10;2.38;;;13.20;99.90;;;;;;5416083;26;20023;-75
2024/04/09 06:39:33;;;;;;;7.95;2.35;;;13.20;99.90;;;;;;5415620;26;20023;-76
2024/04/09 06:42:02;;;;;;;6.45;2.30;;;13.20;99.90;;;;;;5416064;26;20023;-76
2024/04/09 06:44:30;;;;;;;7.13;2.72;;;13.20;99.90;;;;;;5415510;26;20028;-76
2024/04/09 06:46:58;;;;;;;9.60;2.50;;;13.20;99.90;;;;;;5415778;26;20023;-76
2024/04/09 06:49:25;;;;;;;13.32;2.28;;;13.20;99.90;;;;;;5415842;26;20024;-76
2024/04/09 06:51:52;;;;;;;8.00;2.13;;;13.30;99.90;;;;;;5415388;26;20379;-76
2024/04/09 06:54:19;;;;;;;13.13;2.00;;;13.20;99.90;;;;;;5413078;26;20035;-76
2024/04/09 06:56:46;;;;;;;6.85;2.10;;;13.20;99.90;;;;;;5415993;26;20374;-76
2024/04/09 06:59:13;;;;;;;8.43;2.65;;;13.20;99.90;;;;;;5415871;26;20023;-76
2024/04/09 07:01:40;;;;;;;7.60;1.92;;;13.30;99.90;;;;;;5413378;26;20039;-76
2024/04/09 07:04:07;;;;;;;6.70;1.98;;;13.30;99.90;;;;;;5421419;26;20047;-76
2024/04/09 07:06:34;;;;;;;7.88;1.90;;;13.20;99.90;;;;;;5432653;26;20102;-75
2024/04/09 07:09:03;;;;;;;8.15;1.40;;;13.20;99.90;;;;;;5434489;26;20393;-76
2024/04/09 07:11:30;;;;;;;4.95;1.90;;;13.20;99.90;;;;;;5432305;26;20031;-75
2024/04/09 07:13:57;;;;;;;5.50;1.50;;;13.10;99.90;;;;;;5433991;26;20047;-75
2024/04/09 07:16:23;;;;;;;5.22;1.52;;;13.10;99.90;;;;;;5431773;26;20040;-75
2024/04/09 07:18:50;;;;;;;7.57;2.03;;;13.10;99.90;;;;;;5418179;26;20027;-78
2024/04/09 07:21:18;;;;;;;7.82;2.05;;;13.10;99.90;;;;;;5413684;26;20019;-75
2024/04/09 07:23:47;;;;;;;7.07;1.58;;;13.10;99.90;;;;;;5413035;26;20023;-76
2024/04/09 07:26:14;;;;;;;6.05;2.05;;;13.10;99.90;;;;;;5413846;26;20032;-75
2024/04/09 07:28:40;;;;;;;6.60;1.90;;;13.10;99.90;;;;;;5415072;26;20020;-76
2024/04/09 07:31:08;;;;;;;6.65;2.95;;;13.10;99.90;;;;;;5415156;26;20024;-75
2024/04/09 07:33:35;;;;;;;11.35;2.35;;;13.10;99.90;;;;;;5414719;26;20016;-75
2024/04/09 07:36:03;;;;;;;4.32;1.58;;;13.10;99.90;;;;;;5414694;26;20023;-75
2024/04/09 07:38:30;;;;;;;5.88;2.05;;;13.10;99.90;;;;;;5415646;26;20023;-76
2024/04/09 07:40:57;;;;;;;6.25;1.70;;;13.10;99.90;;;;;;5415042;26;20106;-76
2024/04/09 07:43:24;;;;;;;9.63;1.92;;;13.20;99.90;;;;;;5414979;26;20020;-76
2024/04/09 07:45:54;;;;;;;7.22;1.70;;;13.20;99.90;;;;;;5415150;26;20031;-75
2024/04/09 07:48:22;;;;;;;8.15;2.00;;;13.30;99.90;;;;;;5415364;26;20403;-76
2024/04/09 07:50:49;;;;;;;8.55;1.50;;;13.30;99.90;;;;;;5424611;26;20031;-76
2024/04/09 07:53:16;;;;;;;6.28;1.42;;;13.30;99.90;;;;;;5431987;26;20040;-76
2024/04/09 07:55:43;;;;;;;9.80;2.25;;;13.30;99.90;;;;;;5423287;26;20402;-76
2024/04/09 07:58:11;;;;;;;7.00;1.90;;;13.20;99.90;;;;;;5415020;26;20031;-75
2024/04/09 08:00:39;;;;;;;7.35;1.80;;;13.20;99.90;;;;;;5412383;26;20024;-76
2024/04/09 08:03:05;;;;;;;7.30;1.92;;;13.10;99.90;;;;;;5414314;26;20032;-76
2024/04/09 08:05:34;;;;;;;8.98;2.20;;;13.10;99.90;;;;;;5414610;26;20028;-76
2024/04/09 08:08:01;;;;;;;6.65;2.28;;;13.10;99.90;;;;;;5414773;26;20035;-75
2024/04/09 08:10:28;;;;;;;10.13;2.92;;;13.10;99.90;;;;;;5414620;26;20015;-76
2024/04/09 08:12:56;;;;;;;7.38;3.08;;;13.10;99.90;;;;;;5414328;26;20376;-76
2024/04/09 08:15:24;;;;;;;8.40;2.28;;;13.10;99.90;;;;;;5429948;26;20038;-75
2024/04/09 08:17:51;;;;;;;7.85;2.47;;;13.10;99.90;;;;;;5433723;26;20026;-76
2024/04/09 08:20:18;;;;;;;10.90;2.67;;;13.10;99.90;;;;;;5427751;26;20498;-76
2024/04/09 08:22:49;;;;;;;7.38;1.75;;;13.20;99.90;;;;;;5432199;26;20031;-76
2024/04/09 08:25:18;;;;;;;10.10;2.53;;;13.20;99.90;;;;;;5432046;26;20035;-76
2024/04/09 08:27:45;;;;;;;9.02;2.75;;;13.30;99.90;;;;;;5444636;26;20027;-76
2024/04/09 08:30:14;;;;;;;11.05;2.40;;;13.40;99.90;;;;;;5448968;26;20491;-76
2024/04/09 08:32:41;;;;;;;5.45;2.22;;;13.40;99.90;;;;;;5429977;26;20387;-76
2024/04/09 08:35:09;;;;;;;11.38;3.05;;;13.30;99.90;;;;;;5452767;26;20355;-76
2024/04/09 08:37:35;;;;;;;7.43;3.08;;;13.30;99.90;;;;;;5453660;26;20019;-75
2024/04/09 08:40:03;;;;;;;8.18;2.60;;;13.30;99.90;;;;;;5433894;26;20039;-76
2024/04/09 08:42:35;;;;;;;9.27;2.53;;;13.20;99.90;;;;;;5441328;26;20022;-75
2024/04/09 08:45:02;;;;;;;6.90;2.92;;;13.20;99.90;;;;;;5446842;26;20027;-75
2024/04/09 08:47:30;;;;;;;8.43;2.92;;;13.20;99.90;;;;;;5432167;26;20032;-76
2024/04/09 08:49:57;;;;;;;9.02;3.22;;;13.20;99.90;;;;;;5433004;26;20027;-76
2024/04/09 08:52:26;;;;;;;8.65;3.00;;;13.20;99.90;;;;;;5436580;26;20030;-75
2024/04/09 08:54:53;;;;;;;9.18;3.08;;;13.30;99.90;;;;;;5433513;26;20048;-75
2024/04/09 08:57:21;;;;;;;9.90;3.28;;;13.30;99.90;;;;;;5431207;26;20035;-76
2024/04/09 08:59:48;;;;;;;9.32;3.17;;;13.40;99.90;;;;;;5432669;26;20040;-76
2024/04/09 09:02:16;;;;;;;9.90;3.08;;;13.40;99.90;;;;;;5434358;26;20381;-76
2024/04/09 09:04:45;;;;;;;9.20;3.97;;;13.40;99.90;;;;;;5435659;26;20027;-75
2024/04/09 09:07:16;;;;;;;7.43;3.55;;;13.40;99.90;;;;;;5431823;26;20403;-75
2024/04/09 09:09:44;;;;;;;8.77;3.67;;;13.30;99.90;;;;;;5416842;26;20020;-76
2024/04/09 09:12:12;;;;;;;9.18;3.08;;;13.30;99.90;;;;;;5417034;26;20024;-76
2024/04/09 09:14:47;;;;;;;9.07;4.40;;;13.30;99.90;;;;;;5416593;26;20019;-75
2024/04/09 09:17:15;;;;;;;8.75;3.53;;;13.30;99.90;;;;;;5417301;26;20020;-76
2024/04/09 09:19:42;;;;;;;8.00;3.45;;;13.30;99.90;;;;;;5416789;26;20023;-76
2024/04/09 09:22:10;;;;;;;6.00;3.67;;;13.30;99.90;;;;;;5414790;26;20023;-75
2024/04/09 09:24:38;;;;;;;8.20;3.60;;;13.30;99.90;;;;;;5414044;26;20023;-75
2024/04/09 09:27:07;;;;;;;11.85;4.15;;;13.40;99.90;;;;;;5429740;26;20028;-76
2024/04/09 09:29:35;;;;;;;8.57;5.07;;;13.50;99.90;;;;;;5452312;26;20019;-77
2024/04/09 09:32:04;;;;;;;7.80;3.97;;;13.70;99.90;;;;;;5452842;26;20031;-77
2024/04/09 09:34:40;;;;;;;5.40;3.20;;;13.90;99.90;;;;;;5449959;26;20030;-77
2024/04/09 09:37:08;;;;;;;9.85;3.97;;;14.10;99.90;;;;;;5452437;26;20027;-77
2024/04/09 09:39:35;;;;;;;7.40;4.05;;;14.40;99.90;;;;;;5452383;26;20019;-77
2024/04/09 09:42:04;;;;;;;5.47;3.63;;;14.50;99.90;;;;;;5452286;26;20507;-77
2024/04/09 09:44:45;;;;;;;3.95;3.03;;;14.60;99.90;;;;;;5450514;26;20026;-77
2024/04/09 09:47:12;;;;;;;6.97;3.92;;;14.60;99.90;;;;;;5452332;26;20366;-77
2024/04/09 09:49:39;;;;;;;7.38;3.53;;;14.90;99.90;;;;;;5452172;26;20038;-77
2024/04/09 09:52:06;;;;;;;7.80;3.95;;;15.00;99.90;;;;;;5450364;26;20498;-77
2024/04/09 09:54:33;;;;;;;6.68;3.67;;;15.00;99.90;;;;;;5434629;26;20034;-77
2024/04/09 09:57:10;;;;;;;7.32;3.67;;;15.00;99.90;;;;;;5452466;26;20023;-77
2024/04/09 09:59:45;;;;;;;4.95;3.28;;;14.90;99.90;;;;;;5451930;26;20026;-77
2024/04/09 10:02:14;;;;;;;6.28;3.10;;;14.90;99.90;;;;;;5452705;26;20019;-77
2024/04/09 10:04:44;;;;;;;5.50;3.20;;;14.90;99.90;;;;;;5449448;26;20023;-77
2024/04/09 10:07:11;;;;;;;4.97;3.20;;;14.90;99.90;;;;;;5452428;26;20479;-77
2024/04/09 10:09:48;;;;;;;6.25;3.10;;;14.90;99.90;;;;;;5452091;26;20023;-77
2024/04/09 10:12:35;;;;;;;4.45;3.00;;;14.90;99.90;;;;;;5452356;26;20377;-77
2024/04/09 10:15:15;;;;;;;4.68;3.10;;;15.00;99.90;;;;;;5449871;26;20023;-77
2024/04/09 10:17:52;;;;;;;4.55;2.40;;;15.00;99.90;;;;;;5451866;26;20031;-77
2024/04/09 10:20:28;;;;;;;5.85;2.58;;;15.00;99.90;;;;;;5451892;26;20014;-77
2024/04/09 10:22:57;;;;;;;3.35;2.20;;;15.30;99.90;;;;;;5450008;26;20019;-77
2024/04/09 10:25:24;;;;;;;5.95;2.53;;;15.60;99.90;;;;;;5451325;26;20018;-77
2024/04/09 10:28:02;;;;;;;7.15;2.42;;;15.80;99.90;;;;;;5452135;26;20023;-77
2024/04/09 10:30:31;;;;;;;8.02;2.53;;;15.90;99.90;;;;;;5451730;26;20019;-77
2024/04/09 10:33:01;;;;;;;3.20;1.60;;;15.90;99.90;;;;;;5451525;26;20031;-77
2024/04/09 10:35:29;;;;;;;4.80;2.35;;;16.00;99.90;;;;;;5451670;26;20035;-77
2024/04/09 10:37:58;;;;;;;4.68;2.00;;;16.00;99.90;;;;;;5451998;26;20514;-77
2024/04/09 10:40:25;;;;;;;5.90;2.50;;;16.10;99.90;;;;;;5441468;26;20024;-77
2024/04/09 10:42:52;;;;;;;3.95;1.42;;;16.00;99.90;;;;;;5434477;26;20383;-77
2024/04/09 10:45:20;;;;;;;3.85;1.73;;;15.90;99.90;;;;;;5431913;26;20478;-77
2024/04/09 10:47:47;;;;;;;3.13;1.60;;;15.80;99.90;;;;;;5432363;26;20035;-77
2024/04/09 10:50:15;;;;;;;4.95;1.60;;;15.80;99.90;;;;;;5446295;26;20023;-77
2024/04/09 10:52:42;;;;;;;3.75;1.40;;;15.80;99.90;;;;;;5451896;26;20030;-77
2024/04/09 10:55:14;;;;;;;4.82;1.38;;;15.70;99.90;;;;;;5450630;26;20023;-77
2024/04/09 10:57:42;;;;;;;5.88;1.52;;;15.70;99.90;;;;;;5451823;26;20022;-77
2024/04/09 11:00:11;;;;;;;3.72;1.20;;;15.50;99.90;;;;;;5451425;26;20028;-77
2024/04/09 11:02:43;;;;;;;3.95;1.63;;;15.30;99.90;;;;;;5451565;26;20054;-77
2024/04/09 11:05:11;;;;;;;3.55;1.10;;;15.30;99.90;;;;;;5450993;26;20027;-78
2024/04/09 11:07:40;;;;;;;4.93;1.50;;;15.20;99.90;;;;;;5451260;26;20023;-77
2024/04/09 11:10:10;;;;;;;2.35;1.20;;;15.40;99.90;;;;;;5449690;26;20018;-77
2024/04/09 11:12:40;;;;;;;4.95;1.52;;;15.60;99.90;;;;;;5451338;26;20098;-77
2024/04/09 11:15:10;;;;;;;3.97;2.35;;;15.60;99.90;;;;;;5450694;26;20023;-77
2024/04/09 11:17:40;;;;;;;3.75;1.83;;;15.60;99.90;;;;;;5451418;26;20027;-78
2024/04/09 11:20:14;;;;;;;3.00;1.13;;;15.60;99.90;;;;;;5451284;26;20036;-77
2024/04/09 11:22:41;;;;;;;4.32;1.35;;;15.50;99.90;;;;;;5451610;26;20483;-78
2024/04/09 11:25:24;;;;;;;4.80;1.75;;;15.50;99.90;;;;;;5450509;26;20019;-78
2024/04/09 11:27:52;;;;;;;3.72;1.35;;;15.50;99.90;;;;;;5451567;26;20022;-78
2024/04/09 11:30:27;;;;;;;3.40;1.35;;;15.60;99.90;;;;;;5450987;26;20018;-78
2024/04/09 11:32:55;;;;;;;5.05;1.40;;;15.40;99.90;;;;;;5451113;26;20479;-78
2024/04/09 11:35:26;;;;;;;3.53;1.60;;;15.20;99.90;;;;;;5450272;26;20015;-77
2024/04/09 11:37:55;;;;;;;4.38;1.60;;;15.10;99.90;;;;;;5451153;26;20497;-77
2024/04/09 11:40:23;;;;;;;2.53;1.40;;;15.10;99.90;;;;;;5450574;26;20022;-78
2024/04/09 11:42:54;;;;;;;3.97;2.03;;;15.00;99.90;;;;;;5451004;26;20027;-78
2024/04/09 11:45:27;;;;;;;5.03;1.42;;;15.00;99.90;;;;;;5449755;26;20026;-78
2024/04/09 11:47:55;;;;;;;5.28;1.58;;;14.90;99.90;;;;;;5449537;26;20039;-77
2024/04/09 11:50:23;;;;;;;4.05;1.55;;;14.90;99.90;;;;;;5449866;26;20027;-77
2024/04/09 11:52:50;;;;;;;6.75;2.28;;;14.90;99.90;;;;;;5450287;26;20026;-77
2024/04/09 11:55:17;;;;;;;5.72;1.23;;;14.80;99.90;;;;;;5447472;21;20060;-79
2024/04/09 11:57:46;;;;;;;2.92;1.27;;;14.80;99.90;;;;;;5392925;26;20024;-82
2024/04/09 12:00:14;;;;;;;3.88;1.63;;;14.70;99.90;;;;;;5390223;26;20020;-80
2024/04/09 12:02:43;;;;;;;5.72;1.33;;;14.70;99.90;;;;;;5390990;26;20020;-80
2024/04/09 12:05:14;;;;;;;3.90;1.83;;;14.70;99.90;;;;;;5395420;26;20011;-80
2024/04/09 12:07:41;;;;;;;4.20;1.08;;;14.70;99.90;;;;;;5397219;26;20007;-80
2024/04/09 12:10:10;;;;;;;3.22;1.45;;;14.70;99.90;;;;;;5398150;26;19997;-80
2024/04/09 12:12:38;;;;;;;6.28;1.05;;;14.70;99.90;;;;;;5397913;26;19992;-80
2024/04/09 12:15:05;;;;;;;5.13;0.90;;;14.80;99.90;;;;;;5397036;26;19996;-80
2024/04/09 12:17:32;;;;;;;2.22;0.90;;;14.90;99.90;;;;;;5397735;26;19992;-79
2024/04/09 12:19:59;;;;;;;5.93;1.95;;;14.90;99.90;;;;;;5395754;26;20003;-80
2024/04/09 12:22:27;;;;;;;5.43;1.25;;;14.90;99.90;;;;;;5395317;26;20007;-80
2024/04/09 12:24:56;;;;;;;4.28;0.77;;;14.90;99.90;;;;;;5394368;26;20001;-80
2024/04/09 12:27:23;;;;;;;3.15;1.00;;;14.90;99.90;;;;;;5397208;26;19996;-79
2024/04/09 12:29:50;;;;;;;4.55;1.08;;;14.90;99.90;;;;;;5396601;26;20990;-80
2024/04/09 12:32:17;;;;;;;3.70;0.98;;;14.80;99.90;;;;;;5394273;26;20007;-80
2024/04/09 12:34:44;;;;;;;4.53;1.08;;;14.80;99.90;;;;;;5393508;26;20007;-80
2024/04/09 12:37:12;;;;;;;4.82;0.90;;;14.70;99.90;;;;;;5394136;26;20011;-80
2024/04/09 12:39:39;;;;;;;5.07;1.38;;;14.70;99.90;;;;;;5393895;26;19996;-80
2024/04/09 12:42:06;;;;;;;6.72;1.77;;;14.50;99.90;;;;;;5393465;26;20007;-80
2024/04/09 12:44:33;;;;;;;5.57;1.23;;;14.50;99.90;;;;;;5393586;26;20000;-80